createdAt,value
2019-02-06T00:00:41.850Z,83.38
2019-02-06T00:03:11.780Z,83.35
2019-02-06T00:05:40.866Z,82.90
2019-02-06T00:08:09.957Z,83.12
2019-02-06T00:10:38.992Z,82.92
2019-02-06T00:13:08.048Z,82.45
2019-02-06T00:15:37.196Z,82.08
2019-02-06T00:18:06.307Z,81.98
2019-02-06T00:20:35.403Z,82.00
2019-02-06T00:23:04.473Z,81.79
2019-02-06T00:25:33.554Z,81.89
2019-02-06T00:28:02.610Z,81.88
2019-02-06T00:30:31.701Z,82.02
2019-02-06T00:33:00.749Z,81.85
2019-02-06T00:35:29.795Z,81.92
2019-02-06T00:37:58.877Z,81.97
2019-02-06T00:40:27.949Z,81.90
2019-02-06T00:42:57.036Z,81.77
2019-02-06T00:45:26.171Z,81.71
2019-02-06T00:47:55.226Z,82.02
2019-02-06T00:50:24.332Z,81.65
2019-02-06T00:52:53.523Z,81.52
2019-02-06T00:55:22.588Z,81.55
2019-02-06T00:57:51.667Z,81.69
2019-02-06T01:00:22.606Z,81.77
2019-02-06T01:02:52.243Z,81.84
2019-02-06T01:05:21.537Z,81.59
2019-02-06T01:07:50.813Z,81.66
2019-02-06T01:10:20.042Z,81.70
2019-02-06T01:12:49.112Z,82.01
2019-02-06T01:15:18.150Z,81.61
2019-02-06T01:17:47.241Z,81.40
2019-02-06T01:20:16.973Z,81.58
2019-02-06T01:22:46.063Z,81.97
2019-02-06T01:25:15.648Z,81.75
2019-02-06T01:27:44.713Z,81.65
2019-02-06T01:30:16.685Z,81.50
2019-02-06T01:32:45.724Z,81.51
2019-02-06T01:35:15.226Z,81.33
2019-02-06T01:37:44.273Z,81.39
2019-02-06T01:40:15.966Z,81.32
2019-02-06T01:42:45.006Z,81.06
2019-02-06T01:45:14.963Z,81.17
2019-02-06T01:47:44.006Z,81.09
2019-02-06T01:50:13.919Z,80.78
2019-02-06T01:52:42.972Z,80.63
2019-02-06T01:55:12.033Z,80.78
2019-02-06T01:57:41.117Z,80.66
2019-02-06T02:00:15.628Z,80.81
2019-02-06T02:02:44.662Z,80.88
2019-02-06T02:05:14.084Z,80.70
2019-02-06T02:07:43.199Z,80.81
2019-02-06T02:10:12.206Z,80.76
2019-02-06T02:12:41.255Z,80.66
2019-02-06T02:15:11.385Z,80.66
2019-02-06T02:17:40.418Z,80.59
2019-02-06T02:20:12.670Z,80.79
2019-02-06T02:22:41.717Z,80.57
2019-02-06T02:25:10.791Z,80.38
2019-02-06T02:27:39.807Z,80.48
2019-02-06T02:30:10.865Z,80.21
2019-02-06T02:32:39.943Z,80.17
2019-02-06T02:35:09.256Z,80.05
2019-02-06T02:37:38.317Z,80.29
2019-02-06T02:40:08.194Z,80.10
2019-02-06T02:42:37.340Z,79.81
2019-02-06T02:45:08.501Z,79.69
2019-02-06T02:47:37.546Z,79.65
2019-02-06T02:50:08.394Z,79.45
2019-02-06T02:52:37.458Z,79.47
2019-02-06T02:55:07.694Z,79.44
2019-02-06T02:57:36.752Z,79.00
2019-02-06T03:00:09.779Z,78.97
2019-02-06T03:02:54.127Z,78.70
2019-02-06T03:05:28.907Z,78.61
2019-02-06T03:07:57.963Z,78.53
2019-02-06T03:10:26.995Z,78.48
2019-02-06T03:12:56.065Z,78.63
2019-02-06T03:15:25.315Z,78.47
2019-02-06T03:17:54.349Z,78.63
2019-02-06T03:20:23.392Z,78.23
2019-02-06T03:22:52.513Z,77.57
2019-02-06T03:25:21.521Z,77.75
2019-02-06T03:27:50.699Z,77.82
2019-02-06T03:30:20.094Z,77.60
2019-02-06T03:32:49.191Z,76.70
2019-02-06T03:35:18.621Z,76.57
2019-02-06T03:37:47.727Z,77.15
2019-02-06T03:40:16.793Z,76.49
2019-02-06T03:42:45.846Z,76.36
2019-02-06T03:45:15.400Z,76.38
2019-02-06T03:47:44.353Z,76.54
2019-02-06T03:50:14.955Z,76.33
2019-02-06T03:52:43.981Z,76.42
2019-02-06T03:55:13.118Z,76.29
2019-02-06T03:57:42.349Z,76.59
2019-02-06T04:00:13.607Z,76.65
2019-02-06T04:02:42.849Z,76.30
2019-02-06T04:05:12.093Z,75.62
2019-02-06T04:07:41.153Z,75.46
2019-02-06T04:10:11.955Z,75.60
2019-02-06T04:12:40.972Z,75.77
2019-02-06T04:15:09.983Z,75.59
2019-02-06T04:17:38.989Z,75.39
2019-02-06T04:20:10.894Z,75.19
2019-02-06T04:22:39.953Z,74.61
2019-02-06T04:25:09.039Z,74.62
2019-02-06T04:27:38.051Z,74.79
2019-02-06T04:30:08.466Z,74.34
2019-02-06T04:32:37.536Z,74.21
2019-02-06T04:35:09.383Z,74.21
2019-02-06T04:37:38.569Z,74.45
2019-02-06T04:40:11.587Z,74.09
2019-02-06T04:42:40.712Z,74.21
2019-02-06T04:45:11.013Z,74.22
2019-02-06T04:47:40.033Z,74.45
2019-02-06T04:50:10.137Z,74.15
2019-02-06T04:52:39.238Z,73.86
2019-02-06T04:55:08.653Z,73.94
2019-02-06T04:57:37.654Z,74.27
2019-02-06T05:00:13.304Z,73.90
2019-02-06T05:02:42.362Z,73.90
2019-02-06T05:05:11.395Z,73.94
2019-02-06T05:07:40.379Z,73.63
2019-02-06T05:10:11.074Z,73.92
2019-02-06T05:12:40.154Z,73.87
2019-02-06T05:15:09.502Z,73.37
2019-02-06T05:17:38.540Z,73.34
2019-02-06T05:20:13.017Z,72.95
2019-02-06T05:22:42.218Z,73.10
2019-02-06T05:25:11.269Z,73.43
2019-02-06T05:27:40.300Z,73.53
2019-02-06T05:30:09.614Z,73.00
2019-02-06T05:32:42.797Z,72.68
2019-02-06T05:35:09.391Z,72.86
2019-02-06T05:37:38.433Z,73.25
2019-02-06T05:40:07.503Z,72.79
2019-02-06T05:42:36.553Z,71.98
2019-02-06T05:45:06.361Z,71.95
2019-02-06T05:47:35.576Z,72.04
2019-02-06T05:50:05.267Z,72.10
2019-02-06T05:52:34.314Z,71.66
2019-02-06T05:55:04.772Z,71.81
2019-02-06T05:57:33.931Z,71.64
2019-02-06T06:00:03.375Z,71.65
2019-02-06T06:02:32.427Z,71.46
2019-02-06T06:05:03.065Z,70.93
2019-02-06T06:07:44.149Z,70.89
2019-02-06T06:10:02.844Z,71.08
2019-02-06T06:12:31.914Z,71.18
2019-02-06T06:15:01.405Z,70.32
2019-02-06T06:17:30.427Z,70.06
2019-02-06T06:19:59.479Z,69.96
2019-02-06T06:22:28.533Z,70.21
2019-02-06T06:24:57.551Z,70.00
2019-02-06T06:27:32.396Z,69.75
2019-02-06T06:30:01.406Z,69.62
2019-02-06T06:32:32.000Z,69.53
2019-02-06T06:35:01.265Z,69.96
2019-02-06T06:37:30.287Z,70.07
2019-02-06T06:39:59.364Z,70.00
2019-02-06T06:42:28.385Z,70.08
2019-02-06T06:44:57.482Z,70.40
2019-02-06T06:47:26.508Z,70.28
2019-02-06T06:49:55.611Z,70.04
2019-02-06T06:52:24.624Z,69.75
2019-02-06T06:54:53.682Z,69.73
2019-02-06T06:57:22.706Z,69.58
2019-02-06T06:59:51.737Z,69.86
2019-02-06T07:02:20.938Z,69.98
2019-02-06T07:04:49.972Z,70.60
2019-02-06T07:07:19.063Z,70.45
2019-02-06T07:09:48.139Z,70.78
2019-02-06T07:12:17.183Z,69.42
2019-02-06T07:14:46.239Z,69.88
2019-02-06T07:17:15.542Z,69.66
2019-02-06T07:19:44.617Z,69.02
2019-02-06T07:22:13.772Z,69.29
2019-02-06T07:24:42.853Z,69.23
2019-02-06T07:27:11.864Z,68.60
2019-02-06T07:29:40.891Z,68.74
2019-02-06T07:32:10.318Z,68.57
2019-02-06T07:34:39.358Z,68.37
2019-02-06T07:37:08.435Z,68.44
2019-02-06T07:39:37.460Z,67.86
2019-02-06T07:42:06.465Z,67.66
2019-02-06T07:44:35.574Z,67.50
2019-02-06T07:47:05.073Z,67.56
2019-02-06T07:49:34.163Z,66.79
2019-02-06T07:52:03.355Z,66.91
2019-02-06T07:54:32.375Z,67.68
2019-02-06T07:57:01.400Z,66.77
2019-02-06T07:59:30.419Z,66.84
2019-02-06T08:01:59.485Z,67.46
2019-02-06T08:04:28.888Z,66.30
2019-02-06T08:06:58.048Z,66.30
2019-02-06T08:09:27.176Z,65.75
2019-02-06T08:11:56.230Z,65.93
2019-02-06T08:14:25.303Z,65.85
2019-02-06T08:16:54.373Z,66.12
2019-02-06T08:19:23.420Z,65.39
2019-02-06T08:21:52.506Z,65.52
2019-02-06T08:24:21.527Z,65.24
2019-02-06T08:50:29.526Z,63.21
2019-02-06T08:53:31.733Z,62.80
2019-02-06T08:56:31.181Z,62.66
2019-02-06T08:59:36.133Z,62.70
2019-02-06T09:02:31.548Z,62.41
2019-02-06T09:05:33.641Z,61.96
2019-02-06T09:14:34.261Z,61.44
2019-02-06T09:17:30.198Z,60.68
2019-02-06T09:20:29.289Z,60.64
2019-02-06T09:23:31.711Z,61.10
2019-02-06T09:26:00.737Z,60.75
2019-02-06T09:28:30.259Z,60.47
2019-02-06T09:30:59.309Z,59.90
2019-02-06T09:33:28.342Z,59.40
2019-02-06T09:35:57.387Z,60.21
2019-02-06T09:38:26.455Z,58.82
2019-02-06T09:40:55.637Z,59.65
2019-02-06T09:43:27.479Z,59.64
2019-02-06T09:45:57.082Z,58.97
2019-02-06T09:48:26.326Z,58.53
2019-02-06T09:50:55.405Z,57.53
2019-02-06T09:53:24.445Z,57.81
2019-02-06T09:55:53.487Z,57.71
2019-02-06T09:58:22.527Z,57.57
2019-02-06T10:00:51.601Z,57.34
2019-02-06T10:03:20.665Z,56.46
2019-02-06T10:05:49.678Z,57.13
2019-02-06T10:08:18.757Z,57.06
2019-02-06T10:10:47.913Z,57.65
2019-02-06T10:13:16.929Z,57.45
2019-02-06T10:15:46.182Z,57.60
2019-02-06T10:18:15.188Z,56.89
2019-02-06T10:20:47.044Z,57.62
2019-02-06T10:23:16.112Z,56.84
2019-02-06T10:25:45.110Z,57.59
2019-02-06T10:28:14.224Z,58.03
2019-02-06T10:30:46.118Z,57.25
2019-02-06T10:33:33.437Z,56.56
2019-02-06T10:36:02.474Z,56.79
2019-02-06T10:38:31.516Z,55.81
2019-02-06T10:41:00.859Z,55.63
2019-02-06T10:43:32.204Z,55.63
2019-02-06T10:46:00.805Z,56.38
2019-02-06T10:48:29.991Z,56.53
2019-02-06T10:50:59.024Z,55.61
2019-02-06T10:53:28.088Z,57.18
2019-02-06T10:55:57.129Z,56.11
2019-02-06T10:58:26.167Z,56.27
2019-02-06T11:00:57.525Z,55.88
2019-02-06T11:03:26.632Z,55.52
2019-02-06T11:05:55.694Z,56.29
2019-02-06T11:08:25.370Z,55.60
2019-02-06T11:10:54.463Z,56.08
2019-02-06T11:13:23.539Z,55.82
2019-02-06T11:15:52.619Z,55.77
2019-02-06T11:18:21.977Z,55.54
2019-02-06T11:20:51.015Z,54.78
2019-02-06T11:23:20.028Z,54.13
2019-02-06T11:25:49.110Z,53.22
2019-02-06T11:28:18.184Z,52.75
2019-02-06T11:30:47.237Z,53.89
2019-02-06T11:33:16.308Z,52.81
2019-02-06T11:35:45.397Z,53.43
2019-02-06T11:38:14.431Z,52.98
2019-02-06T11:40:43.503Z,53.53
2019-02-06T11:43:12.955Z,53.46
2019-02-06T11:45:42.051Z,53.64
2019-02-06T11:48:11.103Z,53.76
2019-02-06T11:50:41.812Z,54.10
2019-02-06T11:53:13.037Z,54.50
2019-02-06T11:55:42.105Z,55.29
2019-02-06T11:58:11.217Z,54.86
2019-02-06T12:01:11.804Z,56.42
2019-02-06T12:03:40.838Z,55.54
2019-02-06T12:06:10.270Z,56.49
2019-02-06T12:08:39.362Z,56.25
2019-02-06T12:11:08.614Z,55.81
2019-02-06T12:13:37.758Z,56.43
2019-02-06T12:16:06.839Z,56.42
2019-02-06T12:18:35.840Z,55.89
2019-02-06T12:21:05.115Z,56.12
2019-02-06T12:23:34.252Z,56.31
2019-02-06T12:26:03.385Z,56.22
2019-02-06T12:28:32.483Z,55.58
2019-02-06T12:31:01.565Z,55.26
2019-02-06T12:33:30.625Z,55.57
2019-02-06T12:35:59.725Z,54.88
2019-02-06T12:38:29.170Z,55.15
2019-02-06T12:40:58.229Z,54.34
2019-02-06T12:43:27.312Z,54.17
2019-02-06T12:45:56.402Z,53.67
2019-02-06T12:48:25.458Z,53.32
2019-02-06T12:50:54.524Z,52.70
2019-02-06T12:53:23.688Z,53.50
2019-02-06T12:55:52.788Z,53.78
2019-02-06T12:58:21.878Z,53.63
2019-02-06T13:00:50.920Z,53.71
2019-02-06T13:03:19.985Z,53.50
2019-02-06T13:05:49.166Z,53.24
2019-02-06T13:08:18.170Z,53.09
2019-02-06T13:10:47.270Z,52.55
2019-02-06T13:13:16.715Z,52.20
2019-02-06T13:15:47.559Z,53.62
2019-02-06T13:18:18.678Z,52.90
2019-02-06T13:20:47.829Z,52.24
2019-02-06T13:23:17.009Z,52.36
2019-02-06T13:25:46.033Z,51.63
2019-02-06T13:28:15.446Z,51.79
2019-02-06T13:30:44.473Z,50.64
2019-02-06T13:33:13.511Z,50.59
2019-02-06T13:35:42.610Z,50.59
2019-02-06T13:38:11.685Z,51.15
2019-02-06T13:40:45.901Z,51.80
2019-02-06T13:43:11.566Z,50.51
2019-02-06T13:45:45.271Z,50.78
2019-02-06T13:48:14.324Z,51.04
2019-02-06T13:50:43.351Z,50.96
2019-02-06T13:53:12.427Z,50.81
2019-02-06T13:55:41.519Z,51.61
2019-02-06T13:58:19.792Z,50.88
2019-02-06T14:00:41.612Z,50.55
2019-02-06T14:03:10.674Z,49.11
2019-02-06T14:05:39.768Z,50.15
2019-02-06T14:08:11.201Z,50.63
2019-02-06T14:10:40.385Z,49.98
2019-02-06T14:13:09.547Z,49.78
2019-02-06T14:15:40.429Z,50.16
2019-02-06T14:18:09.537Z,50.30
2019-02-06T14:20:39.210Z,50.64
2019-02-06T14:23:17.873Z,50.61
2019-02-06T14:26:09.993Z,50.99
2019-02-06T14:29:21.914Z,50.84
2019-02-06T14:32:06.554Z,50.61
2019-02-06T14:35:21.657Z,51.20
2019-02-06T14:38:48.901Z,50.94
2019-02-06T14:41:29.540Z,51.54
2019-02-06T14:44:32.014Z,51.69
2019-02-06T14:47:33.147Z,51.69
2019-02-06T14:50:30.862Z,51.46
2019-02-06T14:53:47.729Z,51.78
2019-02-06T14:56:44.434Z,52.17
2019-02-06T14:59:26.113Z,52.12
2019-02-06T15:02:28.332Z,52.47
2019-02-06T15:05:48.014Z,53.25
2019-02-06T15:09:02.618Z,53.37
2019-02-06T15:12:16.353Z,54.19
2019-02-06T15:15:18.269Z,54.45
2019-02-06T15:18:11.606Z,54.18
2019-02-06T15:20:51.239Z,53.87
2019-02-06T15:24:04.763Z,54.46
2019-02-06T15:27:17.962Z,54.21
2019-02-06T15:30:26.889Z,53.10
2019-02-06T15:33:42.423Z,53.30
2019-02-06T15:36:39.045Z,52.76
2019-02-06T15:40:20.061Z,52.78
2019-02-06T15:43:13.922Z,52.79
2019-02-06T15:46:25.493Z,51.88
2019-02-06T15:49:28.678Z,51.60
2019-02-06T15:52:27.190Z,51.13
2019-02-06T15:55:17.278Z,51.60
2019-02-06T15:58:27.878Z,52.24
2019-02-06T16:01:40.171Z,52.48
2019-02-06T16:05:13.212Z,53.01
2019-02-06T16:08:29.385Z,53.64
2019-02-06T16:11:47.825Z,53.77
2019-02-06T16:14:49.057Z,53.30
2019-02-06T16:17:39.427Z,53.33
2019-02-06T16:20:52.764Z,53.03
2019-02-06T16:23:52.312Z,52.97
2019-02-06T16:26:49.797Z,52.86
2019-02-06T16:30:04.168Z,53.42
2019-02-06T16:33:02.654Z,53.09
2019-02-06T16:36:30.940Z,52.55
2019-02-06T16:39:15.851Z,53.20
2019-02-06T16:42:28.613Z,52.67
2019-02-06T16:45:16.025Z,52.64
2019-02-06T16:48:23.415Z,51.96
2019-02-06T16:51:25.808Z,52.17
2019-02-06T16:54:24.617Z,51.52
2019-02-06T16:57:43.976Z,51.72
2019-02-06T17:01:08.273Z,50.82
2019-02-06T17:03:57.130Z,51.31
2019-02-06T17:06:52.993Z,51.88
2019-02-06T17:09:54.234Z,50.83
2019-02-06T17:12:42.359Z,50.88
2019-02-06T17:15:52.401Z,50.62
2019-02-06T17:19:06.005Z,49.94
2019-02-06T17:22:05.480Z,50.70
2019-02-06T17:25:13.579Z,50.33
2019-02-06T17:28:11.471Z,50.87
2019-02-06T17:31:22.467Z,51.87
2019-02-06T17:34:19.783Z,51.87
2019-02-06T17:37:26.500Z,52.50
2019-02-06T17:40:27.461Z,53.99
2019-02-06T17:43:37.636Z,54.46
2019-02-06T17:46:53.827Z,55.31
2019-02-06T17:50:18.403Z,56.22
2019-02-06T17:53:15.792Z,57.03
2019-02-06T17:55:44.850Z,57.67
2019-02-06T17:58:14.336Z,58.40
2019-02-06T18:00:57.545Z,58.80
2019-02-06T18:03:28.347Z,58.70
2019-02-06T18:05:57.452Z,59.58
2019-02-06T18:08:26.545Z,59.75
2019-02-06T18:10:58.772Z,59.61
2019-02-06T18:13:28.133Z,60.03
2019-02-06T18:15:57.203Z,60.40
2019-02-06T18:18:26.752Z,60.88
2019-02-06T18:20:55.935Z,60.96
2019-02-06T18:23:25.097Z,61.60
2019-02-06T18:25:55.448Z,61.81
2019-02-06T18:28:24.541Z,61.58
2019-02-06T18:30:53.629Z,61.65
2019-02-06T18:33:23.052Z,62.33
2019-02-06T18:35:55.454Z,62.21
2019-02-06T18:38:24.656Z,63.25
2019-02-06T18:40:53.749Z,65.13
2019-02-06T18:43:23.033Z,66.60
2019-02-06T18:45:52.138Z,67.39
2019-02-06T18:48:23.514Z,67.70
2019-02-06T18:50:52.697Z,68.17
2019-02-06T18:53:21.846Z,67.97
2019-02-06T18:55:51.366Z,68.19
2019-02-06T18:58:20.512Z,67.92
2019-02-06T19:00:49.679Z,67.15
2019-02-06T19:03:21.908Z,67.41
2019-02-06T19:05:51.233Z,67.08
2019-02-06T19:08:23.381Z,67.38
2019-02-06T19:10:51.982Z,67.41
2019-02-06T19:13:21.037Z,67.61
2019-02-06T19:15:56.457Z,67.88
2019-02-06T19:18:21.222Z,67.60
2019-02-06T19:20:50.324Z,67.79
2019-02-06T19:23:19.524Z,67.46
2019-02-06T19:25:48.643Z,68.25
2019-02-06T19:28:18.668Z,67.71
2019-02-06T19:30:47.797Z,67.62
2019-02-06T19:33:17.359Z,67.67
2019-02-06T19:35:46.529Z,67.58
2019-02-06T19:38:15.645Z,68.34
2019-02-06T19:40:44.773Z,69.74
2019-02-06T19:43:13.852Z,69.43
2019-02-06T19:45:42.999Z,68.87
2019-02-06T19:48:16.017Z,68.41
2019-02-06T19:50:43.316Z,67.12
2019-02-06T19:53:12.463Z,67.40
2019-02-06T19:55:42.598Z,67.02
2019-02-06T19:58:11.827Z,66.29
2019-02-06T20:00:41.082Z,67.29
2019-02-06T20:03:10.404Z,67.06
2019-02-06T20:05:39.740Z,66.69
2019-02-06T20:08:09.033Z,67.35
2019-02-06T20:10:40.605Z,66.62
2019-02-06T20:13:13.853Z,66.62
2019-02-06T20:15:40.768Z,66.90
2019-02-06T20:18:10.280Z,66.86
2019-02-06T20:20:39.380Z,67.09
2019-02-06T20:23:08.493Z,67.19
2019-02-06T20:25:37.641Z,67.20
2019-02-06T20:28:06.812Z,67.19
2019-02-06T20:30:35.871Z,67.33
2019-02-06T20:33:05.278Z,67.49
2019-02-06T20:35:34.755Z,67.58
2019-02-06T20:38:04.766Z,67.72
2019-02-06T20:40:35.382Z,68.03
2019-02-06T20:43:04.536Z,68.46
2019-02-06T20:45:33.695Z,68.12
2019-02-06T20:48:02.868Z,68.74
2019-02-06T20:50:33.216Z,70.54
2019-02-06T20:53:02.618Z,72.32
2019-02-06T20:55:31.733Z,73.93
2019-02-06T20:58:00.897Z,74.60
2019-02-06T21:00:32.048Z,74.44
2019-02-06T21:03:01.222Z,74.68
2019-02-06T21:05:30.443Z,75.23
2019-02-06T21:07:59.949Z,75.31
2019-02-06T21:10:30.252Z,74.30
2019-02-06T21:12:59.376Z,74.91
2019-02-06T21:15:28.506Z,75.26
2019-02-06T21:17:57.608Z,75.03
2019-02-06T21:20:26.791Z,75.65
2019-02-06T21:22:56.073Z,75.36
2019-02-06T21:25:25.243Z,75.52
2019-02-06T21:27:54.354Z,75.88
2019-02-06T21:30:25.688Z,75.56
2019-02-06T21:32:54.801Z,75.39
2019-02-06T21:35:24.004Z,75.25
2019-02-06T21:37:53.119Z,75.41
2019-02-06T21:40:26.722Z,75.34
2019-02-06T21:42:55.927Z,75.57
2019-02-06T21:45:24.999Z,75.81
2019-02-06T21:47:54.162Z,76.15
2019-02-06T21:50:23.517Z,76.04
2019-02-06T21:52:57.537Z,76.36
2019-02-06T21:55:26.692Z,76.28
2019-02-06T21:57:55.740Z,76.55
2019-02-06T22:00:26.937Z,76.72
2019-02-06T22:02:56.007Z,76.47
2019-02-06T22:05:25.285Z,76.42
2019-02-06T22:07:54.648Z,76.68
2019-02-06T22:10:23.723Z,76.91
2019-02-06T22:12:52.884Z,76.85
2019-02-06T22:15:23.912Z,76.68
2019-02-06T22:17:53.174Z,76.75
2019-02-06T22:20:22.368Z,76.72
2019-02-06T22:22:51.492Z,76.45
2019-02-06T22:25:20.538Z,76.94
2019-02-06T22:27:50.665Z,77.00
2019-02-06T22:30:24.664Z,76.98
2019-02-06T22:32:53.789Z,77.15
2019-02-06T22:35:23.332Z,77.12
2019-02-06T22:37:52.428Z,77.39
2019-02-06T22:40:22.846Z,77.44
2019-02-06T22:42:52.036Z,77.40
2019-02-06T22:45:22.932Z,78.19
2019-02-06T22:47:52.237Z,78.44
2019-02-06T22:50:23.073Z,79.26
2019-02-06T22:52:52.215Z,79.46
2019-02-06T22:55:21.352Z,79.30
2019-02-06T22:57:50.567Z,79.72
2019-02-06T23:00:46.567Z,80.09
2019-02-06T23:03:19.297Z,80.15
2019-02-06T23:05:48.450Z,79.93
2019-02-06T23:08:17.562Z,80.25
2019-02-06T23:10:46.745Z,80.06
2019-02-06T23:13:16.204Z,80.54
2019-02-06T23:15:45.359Z,80.85
2019-02-06T23:18:14.439Z,80.72
2019-02-06T23:20:43.650Z,81.17
2019-02-06T23:23:12.739Z,81.46
2019-02-06T23:25:43.192Z,81.52
2019-02-06T23:28:12.567Z,82.28
2019-02-06T23:30:41.637Z,81.76
2019-02-06T23:33:10.679Z,82.00
2019-02-06T23:35:39.737Z,82.28
2019-02-06T23:38:08.748Z,82.48
2019-02-06T23:40:37.812Z,82.52
2019-02-06T23:43:07.215Z,82.69
2019-02-06T23:45:36.278Z,82.58
2019-02-06T23:48:05.341Z,82.66
2019-02-06T23:50:34.552Z,82.24
2019-02-06T23:53:03.594Z,82.25
2019-02-06T23:55:32.659Z,82.64
2019-02-06T23:58:02.090Z,82.66
